• Join FlightAware (Why Join?)
  • Login
  • US Flag 
03:18AM EDT


 

Airport Tracker/Info


-or-


 

Live Flight TrackerFlight Track Log ✈ N99KE ✈ 02-Aug-2013 ✈ KVKX - KONZ

Flight Track Log - Related Links

Times and Time Zones

All times are in EDT time to prevent confusion due to time zone crossing. See the N99KE flight status page for this flight to view local times or setup timezone preferences in your user account.

Time Position Orientation Groundspeed Altitude Reporting Facility
EDT Latitude Longitude Course Direction KTS MPH feet Rate Location/Type
04:34PM 38.7333 -76.9667 180° South 85 98 600  Level Potomac TRACON
04:35PM 38.7167 -76.9667 180° South 98 113 1,600 1,140 Climbing Potomac TRACON
04:36PM 38.7000 -76.9833 218° Southwest 107 123 2,800 1,260 Climbing Potomac TRACON
04:37PM 38.6833 -77.0167 237° Southwest 102 117 4,100 1,260 Climbing Potomac TRACON
04:38PM 38.6833 -77.0500 270° West 93 107 5,400 1,200 Climbing Potomac TRACON
04:39PM 38.6667 -77.0833 237° Southwest 98 113 6,600 1,140 Climbing Potomac TRACON
04:40PM 38.6667 -77.1167 270° West 105 121 7,800 660 Climbing Potomac TRACON
04:41PM 38.6500 -77.1667 247° West 143 165 8,000 60 Climbing Potomac TRACON
04:42PM 38.6500 -77.2167 270° West 158 182 8,000 -60 Level Potomac TRACON
04:43PM 38.6333 -77.2833 252° West 156 180 7,900  Descending Potomac TRACON
04:44PM 38.6333 -77.3167 270° West 162 186 8,000  Climbing Potomac TRACON
04:45PM 38.6225 -77.3986 260° West 160 184 7,900 -60 Descending Washington Center
04:46PM 38.6333 -77.4500 285° West 159 183 7,900  Level Potomac TRACON
04:47PM 38.6333 -77.5000 270° West 158 182 7,900  Level Potomac TRACON
04:48PM 38.6333 -77.5500 270° West 155 178 7,900  Level Potomac TRACON
04:49PM 38.6500 -77.6000 293° West 156 180 7,900  Level Potomac TRACON
04:50PM 38.6667 -77.6500 293° West 155 178 7,900  Level Potomac TRACON
04:51PM 38.6833 -77.7000 293° West 156 180 7,900  Level Potomac TRACON
04:52PM 38.7000 -77.7500 293° West 156 180 7,900  Level Potomac TRACON
04:53PM 38.7167 -77.8000 293° West 159 183 7,900  Level Potomac TRACON
04:54PM 38.7333 -77.8500 293° West 154 177 7,900  Level Potomac TRACON
04:55PM 38.7500 -77.9000 293° West 153 176 7,900  Level Potomac TRACON
04:56PM 38.7667 -77.9500 293° West 161 185 7,900  Level Potomac TRACON
04:57PM 38.7889 -78.0181 293° West 162 186 7,900  Level Washington Center
04:58PM 38.8086 -78.0719 295° West 162 186 8,000 300 Climbing Washington Center
04:59PM 38.8203 -78.1150 289° West 145 167 8,500 600 Climbing Washington Center
05:00PM 38.8358 -78.1608 294° West 145 167 9,200 660 Climbing Washington Center
05:01PM 38.8558 -78.2094 298° West 139 160 9,900 300 Climbing Washington Center
05:02PM 38.8822 -78.2397 318° Northwest 155 178 9,900  Level Washington Center
05:03PM 38.9125 -78.2836 312° West 160 184 9,900  Level Washington Center
05:04PM 38.9428 -78.3247 313° West 160 184 9,900  Level Washington Center
05:05PM 38.9731 -78.3658 313° West 160 184 9,900  Level Washington Center
05:06PM 39.0014 -78.4069 312° West 160 184 9,900  Level Washington Center
05:07PM 39.0317 -78.4481 313° West 160 184 9,900  Level Washington Center
05:08PM 39.0642 -78.4894 315° West 160 184 9,900  Level Washington Center
05:09PM 39.0922 -78.5308 311° West 160 184 10,000  Climbing Washington Center
05:10PM 39.1244 -78.5750 313° West 160 184 10,000  Level Washington Center
05:11PM 39.1547 -78.6136 315° West 160 184 10,000  Level Washington Center
05:12PM 39.1828 -78.6575 310° West 160 184 10,000  Level Washington Center
05:13PM 39.2131 -78.6992 313° West 160 184 10,000  Level Washington Center
05:14PM 39.2411 -78.7378 313° West 160 184 10,000  Level Washington Center
05:15PM 39.2714 -78.7794 313° West 160 184 10,000  Level Washington Center
05:16PM 39.3017 -78.8208 313° West 160 184 10,000  Level Washington Center
05:17PM 39.3297 -78.8625 311° West 160 184 10,000  Level Washington Center
05:18PM 39.3578 -78.9014 313° West 155 178 10,000  Level Washington Center
05:21PM 39.4436 -79.0214 313° West 160 184 10,000  Level Cleveland Center
05:22PM 39.4733 -79.0611 314° West 160 184 10,000  Level Cleveland Center
05:23PM 39.5008 -79.1008 312° West 155 178 10,000  Level Cleveland Center
05:24PM 39.5286 -79.1433 310° West 155 178 10,000  Level Cleveland Center
05:25PM 39.5583 -79.1775 318° Northwest 155 178 10,000  Level Cleveland Center
05:26PM 39.5858 -79.2228 308° West 155 178 10,000  Level Cleveland Center
05:27PM 39.6156 -79.2628 314° West 155 178 10,000  Level Cleveland Center
05:28PM 39.6411 -79.3025 310° West 155 178 10,000  Level Cleveland Center
05:29PM 39.6706 -79.3425 314° West 155 178 10,000  Level Cleveland Center
05:30PM 39.6961 -79.3797 312° West 155 178 10,000  Level Cleveland Center
05:31PM 39.7236 -79.4197 312° West 155 178 10,000  Level Cleveland Center
05:32PM 39.7531 -79.4597 314° West 155 178 10,000  Level Cleveland Center
05:33PM 39.7806 -79.4997 312° West 155 178 10,000  Level Cleveland Center
05:34PM 39.8081 -79.5400 312° West 155 178 10,000  Level Cleveland Center
05:35PM 39.8356 -79.5800 312° West 155 178 10,000  Level Cleveland Center
05:36PM 39.8631 -79.6203 312° West 155 178 10,000  Level Cleveland Center
05:38PM 39.9200 -79.7006 313° West 155 178 10,000  Level Cleveland Center
05:39PM 39.9494 -79.7408 314° West 155 178 10,000  Level Cleveland Center
05:40PM 39.9769 -79.7839 310° West 160 184 10,000  Level Cleveland Center
05:41PM 40.0064 -79.8242 314° West 160 184 10,000  Level Cleveland Center
05:42PM 40.0358 -79.8700 310° West 160 184 10,000  Level Cleveland Center
05:43PM 40.0653 -79.9103 314° West 160 184 10,000  Level Cleveland Center
05:44PM 40.0947 -79.9533 312° West 160 184 10,000  Level Cleveland Center
05:45PM 40.1242 -79.9967 312° West 160 184 10,000  Level Cleveland Center
05:46PM 40.1514 -80.0397 310° West 160 184 10,000  Level Cleveland Center
05:47PM 40.1786 -80.0831 309° West 160 184 10,000  Level Cleveland Center
05:48PM 40.2081 -80.1264 312° West 160 184 10,000  Level Cleveland Center
05:49PM 40.2372 -80.1642 315° West 160 184 10,000  Level Cleveland Center
05:50PM 40.2667 -80.2103 310° West 160 184 10,000  Level Cleveland Center
05:53PM 40.3314 -80.3345 304° West  Level FlightAware Approximate
05:55PM 40.4131 -80.4194 304° West 160 184 10,000  Level Cleveland Center
05:56PM 40.4464 -80.4658 313° West 170 196 10,000  Level Cleveland Center
05:57PM 40.4717 -80.5067 309° West 170 196 10,100  Climbing Cleveland Center
05:58PM 40.5008 -80.5503 311° West 170 196 10,100 -120 Level Cleveland Center
05:59PM 40.5300 -80.5939 311° West 160 184 9,900 -120 Descending Cleveland Center
06:00PM 40.5592 -80.6378 311° West 160 184 9,900  Level Cleveland Center
06:01PM 40.5903 -80.6817 313° West 160 184 9,900  Level Cleveland Center
06:02PM 40.6175 -80.7253 309° West 160 184 10,000  Climbing Cleveland Center
06:03PM 40.6467 -80.7692 311° West 160 184 10,000 -60 Level Cleveland Center
06:04PM 40.6736 -80.8103 311° West 160 184 9,900  Descending Cleveland Center
06:05PM 40.7028 -80.8514 313° West 160 184 10,000  Climbing Cleveland Center
06:06PM 40.7297 -80.8956 309° West 160 184 10,000  Level Cleveland Center
06:07PM 40.7586 -80.9367 313° West 160 184 10,000 -60 Level Cleveland Center
06:08PM 40.7836 -80.9781 309° West 160 184 9,900 -60 Descending Cleveland Center
06:09PM 40.8125 -81.0194 313° West 160 184 9,900  Level Cleveland Center
06:10PM 40.8394 -81.0633 309° West 160 184 10,000  Climbing Cleveland Center
06:11PM 40.8644 -81.1019 311° West 160 184 9,900 -60 Descending Cleveland Center
06:12PM 40.8892 -81.1406 310° West 154 177 9,900  Level Cleveland Center
06:13PM 40.9139 -81.1822 308° West 139 160 10,000  Climbing Cleveland Center
06:14PM 40.9389 -81.2236 309° West 140 161 10,000  Level Cleveland Center
06:15PM 40.9658 -81.2567 317° Northwest 138 159 10,000  Level Cleveland Center
06:16PM 40.9947 -81.3011 311° West 132 152 10,000  Level Cleveland Center
06:17PM 41.0194 -81.3400 310° West 137 158 10,000  Level Cleveland Center
06:18PM 41.0461 -81.3789 312° West 137 158 10,000  Level Cleveland Center
06:19PM 41.0708 -81.4175 310° West 137 158 10,000  Level Cleveland Center
06:20PM 41.0956 -81.4564 310° West 137 158 10,000  Level Cleveland Center
06:21PM 41.1225 -81.4956 312° West 137 158 10,000  Level Cleveland Center
06:22PM 41.1492 -81.5372 310° West 137 158 10,000  Level Cleveland Center
06:23PM 41.1781 -81.5872 308° West 145 167 10,000  Level Cleveland Center
06:24PM 41.2047 -81.6264 312° West 144 166 10,000  Level Cleveland Center
06:25PM 41.2314 -81.6681 310° West 144 166 10,000  Level Cleveland Center
06:26PM 41.2561 -81.7017 314° West 143 165 10,000  Level Cleveland Center
06:27PM 41.2808 -81.7436 308° West 146 168 10,000  Level Cleveland Center
06:28PM 41.3075 -81.7856 310° West 144 166 10,000  Level Cleveland Center
06:29PM 41.3319 -81.8219 312° West 147 169 10,000  Level Cleveland Center
06:31PM 41.3708 -81.8836 310° West 144 166 10,000  Level Cleveland Center
06:32PM 41.4161 -81.9536 311° West 146 168 10,000  Level Cleveland Center
06:33PM 41.4425 -81.9931 312° West 146 168 10,000 -60 Level Cleveland Center
06:34PM 41.4672 -82.0297 312° West 155 178 9,900 -60 Descending Cleveland Center
06:35PM 41.4917 -82.0689 310° West 150 173 9,900  Level Cleveland Center
06:36PM 41.5142 -82.1056 309° West 145 167 10,000  Climbing Cleveland Center
06:37PM 41.5408 -82.1450 312° West 139 160 10,000  Level Cleveland Center
06:38PM 41.5672 -82.1844 312° West 139 160 10,000  Level Cleveland Center
06:39PM 41.5917 -82.2267 308° West 139 160 10,000  Level Cleveland Center
06:40PM 41.6161 -82.2661 310° West 139 160 10,000  Level Cleveland Center
06:41PM 41.6447 -82.3114 310° West 141 162 10,000  Level Cleveland Center
06:42PM 41.6711 -82.3511 312° West 134 154 10,000  Level Cleveland Center
06:43PM 41.6956 -82.3936 308° West 134 154 10,000  Level Cleveland Center
06:44PM 41.7200 -82.4331 310° West 134 154 10,000  Level Cleveland Center
06:45PM 41.7464 -82.4728 312° West 134 154 10,000  Level Cleveland Center
06:46PM 41.7728 -82.5125 312° West 134 154 10,000  Level Cleveland Center
06:47PM 41.7831 -82.5242 320° Northwest 143 165 10,000  Level Cleveland Center
06:48PM 41.8156 -82.5753 310° West 143 165 10,000  Level Cleveland Center
06:49PM 41.8375 -82.6206 303° West 144 166 10,000 -180 Level Cleveland Center
06:50PM 41.8575 -82.6714 298° West 143 165 9,700 -600 Descending Cleveland Center
06:51PM 41.8814 -82.7278 300° West 165 190 8,800 -960 Descending Cleveland Center
06:52PM 41.8994 -82.7786 296° West 164 189 7,900 -1,020 Descending Cleveland Center
06:53PM 41.9233 -82.8297 302° West 167 192 6,900 -960 Descending Cleveland Center
06:54PM 41.9472 -82.8864 300° West 167 192 6,000 -960 Descending Cleveland Center
06:55PM 41.9692 -82.9403 299° West 167 192 5,000 -960 Descending Cleveland Center
06:56PM 41.9928 -82.9969 299° West 166 191 4,100 -840 Descending Cleveland Center
06:57PM 42.0147 -83.0508 299° West 162 186 3,300 -1,020 Descending Cleveland Center
06:58PM 42.0367 -83.0964 303° West 169 194 2,200 -1,080 Descending Cleveland Center
06:59PM 42.0686 -83.1539 307° West 169 194 1,300 -900 Descending Cleveland Center
07:01PM 42.0833 -83.1500 294° West  Level FlightAware Approximate
07:08PM 42.0991 -83.1615 294° West  Level Estimated
07:09PM 42.0991 -83.1615 294° West  Level Estimated
07:10PM 42.0991 -83.1615 294° West  Level Estimated